createdAt,value
2018-03-06T00:01:13.850Z,93.07
2018-03-06T00:03:41.439Z,88.33
2018-03-06T00:06:09.097Z,92.53
2018-03-06T00:08:36.703Z,94.17
2018-03-06T00:11:04.337Z,91.07
2018-03-06T00:13:31.994Z,89.87
2018-03-06T00:15:59.586Z,87.67
2018-03-06T00:18:27.178Z,93.27
2018-03-06T00:20:54.806Z,92.20
2018-03-06T00:23:22.401Z,94.30
2018-03-06T00:25:50.014Z,89.40
2018-03-06T00:28:17.650Z,89.47
2018-03-06T00:30:45.254Z,83.90
2018-03-06T00:33:12.827Z,85.60
2018-03-06T00:35:40.452Z,87.73
2018-03-06T00:38:08.055Z,84.63
2018-03-06T00:40:35.640Z,84.10
2018-03-06T00:43:03.435Z,84.47
2018-03-06T00:45:31.022Z,82.47
2018-03-06T00:47:58.636Z,80.67
2018-03-06T00:50:26.312Z,82.97
2018-03-06T00:52:53.874Z,90.10
2018-03-06T00:55:21.504Z,97.87
2018-03-06T00:57:49.131Z,105.10
2018-03-06T01:00:16.738Z,104.43
2018-03-06T01:02:44.335Z,102.43
2018-03-06T01:05:11.994Z,102.37
2018-03-06T01:07:39.583Z,99.47
2018-03-06T01:10:07.165Z,99.00
2018-03-06T01:12:34.802Z,100.17
2018-03-06T01:15:02.451Z,102.30
2018-03-06T01:17:30.065Z,101.93
2018-03-06T01:19:57.702Z,104.50
2018-03-06T01:22:25.291Z,109.63
2018-03-06T01:24:52.895Z,99.57
2018-03-06T01:27:20.557Z,92.47
2018-03-06T01:29:48.163Z,85.70
2018-03-06T01:32:15.734Z,88.87
2018-03-06T01:34:43.368Z,87.97
2018-03-06T01:37:11.000Z,90.23
2018-03-06T01:39:38.579Z,88.87
2018-03-06T01:42:06.217Z,84.60
2018-03-06T01:44:33.810Z,79.03
2018-03-06T01:47:01.400Z,82.90
2018-03-06T01:49:29.019Z,78.20
2018-03-06T01:51:58.363Z,121.17
2018-03-06T01:54:25.973Z,93.17
2018-03-06T01:56:53.658Z,75.20
2018-03-06T01:59:21.247Z,75.03
2018-03-06T02:01:48.844Z,74.17
2018-03-06T02:04:16.493Z,71.37
2018-03-06T02:06:44.082Z,71.50
2018-03-06T02:09:11.679Z,67.63
2018-03-06T02:11:39.318Z,62.20
2018-03-06T02:14:06.928Z,54.73
2018-03-06T02:16:34.522Z,56.43
2018-03-06T02:19:02.162Z,58.53
2018-03-06T02:21:29.766Z,58.53
2018-03-06T02:23:57.363Z,55.60
2018-03-06T02:26:25.030Z,54.67
2018-03-06T02:28:53.214Z,55.90
2018-03-06T02:31:20.807Z,54.67
2018-03-06T02:33:48.457Z,54.37
2018-03-06T02:36:16.124Z,58.92
2018-03-06T02:38:43.734Z,53.90
2018-03-06T02:41:11.361Z,55.57
2018-03-06T02:43:38.948Z,57.50
2018-03-06T02:46:12.264Z,55.80
2018-03-06T02:48:39.878Z,56.87
2018-03-06T02:51:07.499Z,52.97
2018-03-06T02:53:35.144Z,63.00
2018-03-06T02:56:02.730Z,54.07
2018-03-06T02:58:30.330Z,50.67
2018-03-06T03:00:57.972Z,47.13
2018-03-06T03:03:25.558Z,50.53
2018-03-06T03:05:53.213Z,49.90
2018-03-06T03:08:20.847Z,45.40
2018-03-06T03:10:48.452Z,44.67
2018-03-06T03:13:16.056Z,47.00
2018-03-06T03:15:43.688Z,46.37
2018-03-06T03:18:11.281Z,46.43
2018-03-06T03:20:38.881Z,45.07
2018-03-06T03:23:06.524Z,46.13
2018-03-06T03:25:34.141Z,55.55
2018-03-06T03:28:01.738Z,50.27
2018-03-06T03:30:29.366Z,49.20
2018-03-06T03:32:56.966Z,52.90
2018-03-06T03:35:24.558Z,49.77
2018-03-06T03:37:52.185Z,54.67
2018-03-06T03:40:19.811Z,55.67
2018-03-06T03:42:47.395Z,72.37
2018-03-06T03:45:15.025Z,70.03
2018-03-06T03:47:42.639Z,71.37
2018-03-06T03:50:10.243Z,69.20
2018-03-06T03:52:37.869Z,88.32
2018-03-06T03:55:05.468Z,72.47
2018-03-06T03:57:33.102Z,63.43
2018-03-06T04:00:00.723Z,60.50
2018-03-06T04:02:28.348Z,54.33
2018-03-06T04:04:55.944Z,50.70
2018-03-06T04:07:23.566Z,48.37
2018-03-06T04:09:51.151Z,61.50
2018-03-06T04:12:18.740Z,67.60
2018-03-06T04:14:46.386Z,69.17
2018-03-06T04:17:14.007Z,56.40
2018-03-06T04:19:41.648Z,59.27
2018-03-06T04:22:09.287Z,70.20
2018-03-06T04:24:36.886Z,62.97
2018-03-06T04:27:04.498Z,55.23
2018-03-06T04:29:32.162Z,50.97
2018-03-06T04:31:59.751Z,52.77
2018-03-06T04:34:27.331Z,62.77
2018-03-06T04:36:54.970Z,74.90
2018-03-06T04:39:22.575Z,55.90
2018-03-06T04:41:50.154Z,54.87
2018-03-06T04:44:17.784Z,51.53
2018-03-06T04:46:45.377Z,49.70
2018-03-06T04:49:13.010Z,59.83
2018-03-06T04:51:40.635Z,53.97
2018-03-06T04:54:08.233Z,48.90
2018-03-06T04:56:35.825Z,52.23
2018-03-06T04:59:03.492Z,54.07
2018-03-06T05:01:31.142Z,56.47
2018-03-06T05:03:58.691Z,59.23
2018-03-06T05:06:26.347Z,57.87
2018-03-06T05:08:53.941Z,56.00
2018-03-06T05:11:21.558Z,53.20
2018-03-06T05:13:49.207Z,52.03
2018-03-06T05:16:16.854Z,50.70
2018-03-06T05:18:44.446Z,46.30
2018-03-06T05:21:12.100Z,51.67
2018-03-06T05:23:39.700Z,51.60
2018-03-06T05:26:07.289Z,49.90
2018-03-06T05:28:34.926Z,52.00
2018-03-06T05:31:02.527Z,54.10
2018-03-06T05:33:30.132Z,56.87
2018-03-06T05:35:57.741Z,59.00
2018-03-06T05:38:25.336Z,60.10
2018-03-06T05:40:52.935Z,61.00
2018-03-06T05:43:20.604Z,56.37
2018-03-06T05:45:48.258Z,61.47
2018-03-06T05:48:15.845Z,53.20
2018-03-06T05:50:43.509Z,62.03
2018-03-06T05:53:11.098Z,58.37
2018-03-06T05:55:38.736Z,62.17
2018-03-06T05:58:06.343Z,60.33
2018-03-06T06:00:34.059Z,59.83
2018-03-06T06:03:01.718Z,60.33
2018-03-06T06:05:29.324Z,52.17
2018-03-06T06:07:56.923Z,55.60
2018-03-06T06:10:24.568Z,50.63
2018-03-06T06:12:52.167Z,53.37
2018-03-06T06:15:19.774Z,52.37
2018-03-06T06:17:47.383Z,53.93
2018-03-06T06:20:14.965Z,47.90
2018-03-06T06:22:42.541Z,58.40
2018-03-06T06:25:10.153Z,59.80
2018-03-06T06:27:37.992Z,48.97
2018-03-06T06:30:05.582Z,49.17
2018-03-06T06:32:33.192Z,46.50
2018-03-06T06:35:00.796Z,50.20
2018-03-06T06:37:28.372Z,47.50
2018-03-06T06:39:55.982Z,46.93
2018-03-06T06:42:23.563Z,49.07
2018-03-06T06:44:51.185Z,46.90
2018-03-06T06:47:18.791Z,44.70
2018-03-06T06:49:46.400Z,46.60
2018-03-06T06:52:13.971Z,40.50
2018-03-06T06:54:41.586Z,44.60
2018-03-06T06:57:09.158Z,45.60
2018-03-06T06:59:36.773Z,42.17
2018-03-06T07:02:04.476Z,45.27
2018-03-06T07:04:32.056Z,48.23
2018-03-06T07:06:59.635Z,44.87
2018-03-06T07:09:27.239Z,45.87
2018-03-06T07:11:54.842Z,51.70
2018-03-06T07:14:22.424Z,54.97
2018-03-06T07:16:50.036Z,46.97
2018-03-06T07:19:17.595Z,40.37
2018-03-06T07:21:45.193Z,46.20
2018-03-06T07:24:12.807Z,43.33
2018-03-06T07:26:40.488Z,44.77
2018-03-06T07:29:08.062Z,46.10
2018-03-06T07:31:35.666Z,46.17
2018-03-06T07:34:03.234Z,43.83
2018-03-06T07:36:30.888Z,44.50
2018-03-06T07:38:58.498Z,49.90
2018-03-06T07:41:26.067Z,48.80
2018-03-06T07:43:53.634Z,51.50
2018-03-06T07:46:21.261Z,89.73
2018-03-06T07:48:48.989Z,52.27
2018-03-06T07:51:16.569Z,51.20
2018-03-06T07:53:44.173Z,54.00
2018-03-06T07:56:11.756Z,57.43
2018-03-06T07:58:39.380Z,57.83
2018-03-06T08:01:06.997Z,47.37
2018-03-06T08:03:34.584Z,48.33
2018-03-06T08:06:02.154Z,53.40
2018-03-06T08:08:29.770Z,46.33
2018-03-06T08:10:57.334Z,52.00
2018-03-06T08:13:24.899Z,45.97
2018-03-06T08:15:52.501Z,47.40
2018-03-06T08:18:20.059Z,51.30
2018-03-06T08:20:47.626Z,50.87
2018-03-06T08:23:15.228Z,48.93
2018-03-06T08:25:42.796Z,47.53
2018-03-06T08:28:10.407Z,47.13
2018-03-06T08:30:38.019Z,45.90
2018-03-06T08:33:06.491Z,44.17
2018-03-06T08:35:34.064Z,45.20
2018-03-06T08:38:01.676Z,49.37
2018-03-06T08:40:29.243Z,47.83
2018-03-06T08:42:56.815Z,51.60
2018-03-06T08:45:24.431Z,55.17
2018-03-06T08:47:52.004Z,48.20
2018-03-06T08:50:19.584Z,53.20
2018-03-06T08:52:47.203Z,56.13
2018-03-06T08:55:14.775Z,50.67
2018-03-06T08:57:42.391Z,50.07
2018-03-06T09:00:09.997Z,46.63
2018-03-06T09:02:37.578Z,46.40
2018-03-06T09:05:05.153Z,47.03
2018-03-06T09:07:32.772Z,53.10
2018-03-06T09:10:00.339Z,44.47
2018-03-06T09:12:27.907Z,45.03
2018-03-06T09:14:55.528Z,42.90
2018-03-06T09:17:23.153Z,47.27
2018-03-06T09:19:50.697Z,39.33
2018-03-06T09:22:18.293Z,44.20
2018-03-06T09:24:45.859Z,47.03
2018-03-06T09:27:13.436Z,48.40
2018-03-06T09:29:41.051Z,46.17
2018-03-06T09:32:08.628Z,46.40
2018-03-06T09:34:36.197Z,40.07
2018-03-06T09:37:03.812Z,42.97
2018-03-06T09:39:31.382Z,42.10
2018-03-06T09:41:58.946Z,41.73
2018-03-06T09:44:26.565Z,40.27
2018-03-06T09:46:54.136Z,36.67
2018-03-06T09:49:21.709Z,44.00
2018-03-06T09:51:49.311Z,40.07
2018-03-06T09:54:16.883Z,40.87
2018-03-06T09:56:44.451Z,40.80
2018-03-06T09:59:12.060Z,40.47
2018-03-06T10:01:39.627Z,38.43
2018-03-06T10:04:07.201Z,34.57
2018-03-06T10:06:34.831Z,36.00
2018-03-06T10:09:02.416Z,37.97
2018-03-06T10:11:30.144Z,29.40
2018-03-06T10:13:57.746Z,32.67
2018-03-06T10:16:25.352Z,32.63
2018-03-06T10:18:52.908Z,32.50
2018-03-06T10:21:20.471Z,31.30
2018-03-06T10:23:48.089Z,37.40
2018-03-06T10:26:15.646Z,34.83
2018-03-06T10:28:43.211Z,36.70
2018-03-06T10:31:10.816Z,28.90
2018-03-06T10:33:38.455Z,30.60
2018-03-06T10:36:06.046Z,26.13
2018-03-06T10:38:33.653Z,29.47
2018-03-06T10:41:01.229Z,27.90
2018-03-06T10:43:28.808Z,34.60
2018-03-06T10:45:56.409Z,33.58
2018-03-06T10:48:23.974Z,33.17
2018-03-06T10:50:51.530Z,33.53
2018-03-06T10:53:19.147Z,31.90
2018-03-06T10:55:46.715Z,28.03
2018-03-06T10:58:14.285Z,28.50
2018-03-06T11:00:47.814Z,23.77
2018-03-06T11:03:29.844Z,22.07
2018-03-06T11:05:57.448Z,22.33
2018-03-06T11:08:25.020Z,22.80
2018-03-06T11:10:52.602Z,26.77
2018-03-06T11:13:20.308Z,27.53
2018-03-06T11:15:47.891Z,30.87
2018-03-06T11:18:15.474Z,32.90
2018-03-06T11:20:43.104Z,30.30
2018-03-06T11:23:10.681Z,28.80
2018-03-06T11:25:38.255Z,31.30
2018-03-06T11:28:05.870Z,28.20
2018-03-06T11:30:33.442Z,31.90
2018-03-06T11:33:01.020Z,32.03
2018-03-06T11:35:28.647Z,30.83
2018-03-06T11:37:56.203Z,30.90
2018-03-06T11:40:23.770Z,35.00
2018-03-06T11:42:51.377Z,33.33
2018-03-06T11:45:18.949Z,33.83
2018-03-06T11:47:46.524Z,31.70
2018-03-06T11:50:14.128Z,32.10
2018-03-06T11:52:41.710Z,32.73
2018-03-06T11:55:09.280Z,32.50
2018-03-06T11:57:37.465Z,31.23
2018-03-06T12:00:05.152Z,31.50
2018-03-06T12:02:32.724Z,29.63
2018-03-06T12:05:00.335Z,31.33
2018-03-06T12:07:27.915Z,28.60
2018-03-06T12:09:55.586Z,30.10
2018-03-06T12:12:23.218Z,28.60
2018-03-06T12:14:50.795Z,29.73
2018-03-06T12:17:18.531Z,29.87
2018-03-06T12:19:46.128Z,31.00
2018-03-06T12:22:13.747Z,33.50
2018-03-06T12:24:41.320Z,32.83
2018-03-06T12:27:08.909Z,33.10
2018-03-06T12:29:36.473Z,33.27
2018-03-06T12:32:04.031Z,32.03
2018-03-06T12:34:31.630Z,30.60
2018-03-06T12:36:59.188Z,31.00
2018-03-06T12:39:26.752Z,30.37
2018-03-06T12:41:54.362Z,31.67
2018-03-06T12:44:21.941Z,32.40
2018-03-06T12:46:49.531Z,28.53
2018-03-06T12:49:17.201Z,29.30
2018-03-06T12:51:44.774Z,29.57
2018-03-06T12:54:12.344Z,31.73
2018-03-06T12:56:40.102Z,31.80
2018-03-06T12:59:07.672Z,32.10
2018-03-06T13:01:35.306Z,29.93
2018-03-06T13:04:04.064Z,30.27
2018-03-06T13:06:31.634Z,30.53
2018-03-06T13:08:59.208Z,31.73
2018-03-06T13:11:26.998Z,32.60
2018-03-06T13:13:54.566Z,32.50
2018-03-06T13:16:22.130Z,31.77
2018-03-06T13:18:49.772Z,27.73
2018-03-06T13:21:18.054Z,26.63
2018-03-06T13:23:45.628Z,26.40
2018-03-06T13:26:13.249Z,28.20
2018-03-06T13:28:42.711Z,29.37
2018-03-06T13:31:10.299Z,28.33
2018-03-06T13:33:39.669Z,26.67
2018-03-06T13:36:08.138Z,28.53
2018-03-06T13:38:36.462Z,28.03
2018-03-06T13:41:04.186Z,27.73
2018-03-06T13:43:31.745Z,31.33
2018-03-06T13:45:59.309Z,31.93
2018-03-06T13:48:26.940Z,33.10
2018-03-06T13:50:54.525Z,33.43
2018-03-06T13:53:22.092Z,31.93
2018-03-06T13:55:49.709Z,32.83
2018-03-06T13:58:17.273Z,36.47
2018-03-06T14:00:44.875Z,34.23
2018-03-06T14:03:12.475Z,37.37
2018-03-06T14:05:40.052Z,40.80
2018-03-06T14:08:07.626Z,41.30
2018-03-06T14:10:35.236Z,40.10
2018-03-06T14:13:02.798Z,38.77
2018-03-06T14:15:30.428Z,38.07
2018-03-06T14:17:58.022Z,41.67
2018-03-06T14:20:25.594Z,42.63
2018-03-06T14:22:53.168Z,37.80
2018-03-06T14:25:20.760Z,39.93
2018-03-06T14:27:48.328Z,40.60
2018-03-06T14:30:15.892Z,39.30
2018-03-06T14:32:43.608Z,39.90
2018-03-06T14:35:11.180Z,40.60
2018-03-06T14:37:38.755Z,43.20
2018-03-06T14:40:06.373Z,50.17
2018-03-06T14:42:33.940Z,45.07
2018-03-06T14:45:01.512Z,45.77
2018-03-06T14:47:29.129Z,45.67
2018-03-06T14:49:56.706Z,50.53
2018-03-06T14:52:24.288Z,45.97
2018-03-06T14:54:52.088Z,42.60
2018-03-06T14:57:19.707Z,52.73
2018-03-06T14:59:47.305Z,47.30
2018-03-06T15:02:14.926Z,62.07
2018-03-06T15:04:42.500Z,50.77
2018-03-06T15:07:10.062Z,42.80
2018-03-06T15:09:37.677Z,49.40
2018-03-06T15:12:05.239Z,46.90
2018-03-06T15:14:32.826Z,42.17
2018-03-06T15:17:00.631Z,38.20
2018-03-06T15:19:28.192Z,46.20
2018-03-06T15:21:55.758Z,41.90
2018-03-06T15:24:23.346Z,38.50
2018-03-06T15:26:50.915Z,44.03
2018-03-06T15:29:18.470Z,45.23
2018-03-06T15:31:46.082Z,56.50
2018-03-06T15:34:13.688Z,64.23
2018-03-06T15:36:41.259Z,59.80
2018-03-06T15:39:08.947Z,97.83
2018-03-06T15:41:36.521Z,49.10
2018-03-06T15:44:04.084Z,71.97
2018-03-06T15:46:31.683Z,53.50
2018-03-06T15:48:59.258Z,65.87
2018-03-06T15:51:26.823Z,65.27
2018-03-06T15:53:54.420Z,57.17
2018-03-06T15:56:21.990Z,119.83
2018-03-06T15:58:49.572Z,128.17
2018-03-06T16:01:17.700Z,122.37
2018-03-06T16:03:45.263Z,90.27
2018-03-06T16:06:12.836Z,78.63
2018-03-06T16:08:40.434Z,76.30
2018-03-06T16:11:08.023Z,87.80
2018-03-06T16:13:35.590Z,100.00
2018-03-06T16:16:03.215Z,64.63
2018-03-06T16:18:30.776Z,52.10
2018-03-06T16:20:58.347Z,52.30
2018-03-06T16:23:25.944Z,56.67
2018-03-06T16:25:53.523Z,71.47
2018-03-06T16:28:21.095Z,67.57
2018-03-06T16:30:48.694Z,70.67
2018-03-06T16:33:16.254Z,70.27
2018-03-06T16:35:43.833Z,80.53
2018-03-06T16:38:11.458Z,66.30
2018-03-06T16:40:39.010Z,65.17
2018-03-06T16:43:06.598Z,72.07
2018-03-06T16:45:34.204Z,76.93
2018-03-06T16:48:01.807Z,116.17
2018-03-06T16:50:29.367Z,111.37
2018-03-06T16:52:56.993Z,89.37
2018-03-06T16:55:24.865Z,84.27
2018-03-06T16:57:52.428Z,74.80
2018-03-06T17:00:20.047Z,83.40
2018-03-06T17:02:47.612Z,80.83
2018-03-06T17:05:15.169Z,80.87
2018-03-06T17:07:42.775Z,158.60
2018-03-06T17:10:10.350Z,88.80
2018-03-06T17:12:37.908Z,75.13
2018-03-06T17:15:05.559Z,73.27
2018-03-06T17:17:33.114Z,77.10
2018-03-06T17:20:00.701Z,80.27
2018-03-06T17:22:28.254Z,73.10
2018-03-06T17:24:55.813Z,73.27
2018-03-06T17:27:23.427Z,93.13
2018-03-06T17:29:51.029Z,82.30
2018-03-06T17:32:18.599Z,70.17
2018-03-06T17:34:46.217Z,74.37
2018-03-06T17:37:13.781Z,75.97
2018-03-06T17:39:41.363Z,70.40
2018-03-06T17:42:09.158Z,64.80
2018-03-06T17:44:36.733Z,77.63
2018-03-06T17:47:04.310Z,75.63
2018-03-06T17:49:31.911Z,74.60
2018-03-06T17:51:59.514Z,77.17
2018-03-06T17:54:27.076Z,65.17
2018-03-06T17:56:54.675Z,68.00
2018-03-06T17:59:22.250Z,72.60
2018-03-06T18:01:49.812Z,66.53
2018-03-06T18:04:17.399Z,70.17
2018-03-06T18:06:44.966Z,58.33
2018-03-06T18:09:12.532Z,64.07
2018-03-06T18:11:40.138Z,66.07
2018-03-06T18:14:07.711Z,80.53
2018-03-06T18:16:35.305Z,76.67
2018-03-06T18:19:02.976Z,68.00
2018-03-06T18:21:30.588Z,63.70
2018-03-06T18:23:58.207Z,57.40
2018-03-06T18:26:26.134Z,55.73
2018-03-06T18:28:54.002Z,53.57
2018-03-06T18:31:21.743Z,57.20
2018-03-06T18:33:49.344Z,56.07
2018-03-06T18:36:16.904Z,52.97
2018-03-06T18:38:44.465Z,53.50
2018-03-06T18:41:12.093Z,54.90
2018-03-06T18:43:39.650Z,54.73
2018-03-06T18:46:07.208Z,61.93
2018-03-06T18:48:34.807Z,54.27
2018-03-06T18:51:09.224Z,51.67
2018-03-06T18:53:36.835Z,65.03
2018-03-06T18:56:04.418Z,69.87
2018-03-06T18:58:31.968Z,57.07
2018-03-06T19:04:28.173Z,51.07
2018-03-06T19:07:14.501Z,59.97
2018-03-06T19:09:42.076Z,53.30
2018-03-06T19:12:09.670Z,53.47
2018-03-06T19:14:37.342Z,56.30
2018-03-06T19:17:04.987Z,55.47
2018-03-06T19:19:32.580Z,54.70
2018-03-06T19:22:00.471Z,59.20
2018-03-06T19:24:28.198Z,62.67
2018-03-06T19:26:55.844Z,57.67
2018-03-06T19:29:23.791Z,65.83
2018-03-06T19:31:51.800Z,90.07
2018-03-06T19:34:20.490Z,64.70
2018-03-06T19:36:48.294Z,61.73
2018-03-06T19:39:16.011Z,56.60
2018-03-06T19:41:44.784Z,70.40
2018-03-06T19:44:12.717Z,77.10
2018-03-06T19:46:40.976Z,77.60
2018-03-06T19:49:09.017Z,74.23
2018-03-06T19:51:36.957Z,73.70
2018-03-06T19:54:05.048Z,87.13
2018-03-06T19:56:32.778Z,60.30
2018-03-06T19:59:00.902Z,53.50
2018-03-06T20:01:29.131Z,52.60
2018-03-06T20:03:57.670Z,51.27
2018-03-06T20:08:58.559Z,52.50
2018-03-06T20:11:26.617Z,55.87
2018-03-06T20:13:54.857Z,56.00
2018-03-06T20:16:22.660Z,60.20
2018-03-06T20:18:55.827Z,61.87
2018-03-06T20:21:23.379Z,56.93
2018-03-06T20:23:52.346Z,58.90
2018-03-06T20:26:19.967Z,59.37
2018-03-06T20:28:47.541Z,61.77
2018-03-06T20:31:20.806Z,62.37
2018-03-06T20:33:48.382Z,67.13
2018-03-06T20:36:15.951Z,82.47
2018-03-06T20:38:49.154Z,78.90
2018-03-06T20:41:16.719Z,68.47
2018-03-06T20:43:44.321Z,59.60
2018-03-06T20:46:17.451Z,63.80
2018-03-06T20:48:45.033Z,66.80
2018-03-06T20:51:12.598Z,77.30
2018-03-06T20:56:45.367Z,93.60
2018-03-06T20:59:12.964Z,87.30
2018-03-06T21:01:40.538Z,83.60
2018-03-06T21:04:08.115Z,76.60
2018-03-06T21:06:35.712Z,72.63
2018-03-06T21:09:03.359Z,80.03
2018-03-06T21:11:30.922Z,77.17
2018-03-06T21:13:58.528Z,83.90
2018-03-06T21:16:26.087Z,89.33
2018-03-06T21:18:53.648Z,90.07
2018-03-06T21:21:21.251Z,88.00
2018-03-06T21:23:48.830Z,87.10
2018-03-06T21:26:16.431Z,89.00
2018-03-06T21:28:44.092Z,76.00
2018-03-06T21:31:11.700Z,71.57
2018-03-06T21:33:39.275Z,69.00
2018-03-06T21:36:06.888Z,74.82
2018-03-06T21:38:34.534Z,79.72
2018-03-06T21:41:02.156Z,88.15
2018-03-06T21:43:29.776Z,79.97
2018-03-06T21:45:57.343Z,74.37
2018-03-06T21:48:24.917Z,76.05
2018-03-06T21:50:52.520Z,71.77
2018-03-06T21:53:20.092Z,73.33
2018-03-06T21:55:47.672Z,74.33
2018-03-06T21:58:15.350Z,72.10
2018-03-06T22:00:43.052Z,77.93
2018-03-06T22:03:10.768Z,66.27
2018-03-06T22:05:38.376Z,80.68
2018-03-06T22:08:05.951Z,78.27
2018-03-06T22:10:33.526Z,72.27
2018-03-06T22:13:01.119Z,71.03
2018-03-06T22:15:28.680Z,82.47
2018-03-06T22:17:56.232Z,80.20
2018-03-06T22:20:23.911Z,79.73
2018-03-06T22:22:51.478Z,84.27
2018-03-06T22:25:19.046Z,88.03
2018-03-06T22:27:46.736Z,107.40
2018-03-06T22:30:14.306Z,85.80
2018-03-06T22:32:41.867Z,89.77
2018-03-06T22:35:09.474Z,91.63
2018-03-06T22:37:37.033Z,72.07
2018-03-06T22:40:04.595Z,96.67
2018-03-06T22:42:32.202Z,90.17
2018-03-06T22:44:59.755Z,87.00
2018-03-06T22:47:27.370Z,87.17
2018-03-06T22:49:54.989Z,80.47
2018-03-06T22:52:22.615Z,78.93
2018-03-06T22:54:50.192Z,74.73
2018-03-06T22:57:17.799Z,78.00
2018-03-06T22:59:45.366Z,77.40
2018-03-06T23:02:13.042Z,159.17
2018-03-06T23:04:40.708Z,194.07
2018-03-06T23:07:08.274Z,137.40
2018-03-06T23:09:35.836Z,81.97
2018-03-06T23:12:03.628Z,90.62
2018-03-06T23:14:31.194Z,36.47
2018-03-06T23:16:58.775Z,94.33
2018-03-06T23:19:26.400Z,88.53
2018-03-06T23:21:54.074Z,85.43
2018-03-06T23:24:21.640Z,60.10
2018-03-06T23:26:49.260Z,61.63
2018-03-06T23:29:16.822Z,62.47
2018-03-06T23:31:44.382Z,62.77
2018-03-06T23:34:11.987Z,49.90
2018-03-06T23:36:39.546Z,29.67
2018-03-06T23:39:07.105Z,36.93
2018-03-06T23:41:34.696Z,51.80
2018-03-06T23:44:02.275Z,36.47
2018-03-06T23:46:29.837Z,32.47
2018-03-06T23:48:57.436Z,31.33
2018-03-06T23:51:25.007Z,37.20
2018-03-06T23:53:52.587Z,39.13
2018-03-06T23:56:20.244Z,58.97
2018-03-06T23:58:47.782Z,59.20
